createdAt,value
2023-06-29T00:04:53.430Z,0
2023-06-29T00:10:10.572Z,0
2023-06-29T00:15:27.881Z,0
2023-06-29T00:20:45.473Z,0
2023-06-29T00:26:02.994Z,0
2023-06-29T00:31:20.335Z,0
2023-06-29T00:36:37.748Z,0
2023-06-29T00:41:55.055Z,0
2023-06-29T00:47:12.333Z,0
2023-06-29T00:52:29.555Z,0
2023-06-29T00:57:50.316Z,0
2023-06-29T01:03:07.648Z,0
2023-06-29T01:08:25.034Z,0
2023-06-29T01:13:42.264Z,0
2023-06-29T01:19:02.285Z,0
2023-06-29T01:24:40.376Z,0
2023-06-29T01:29:57.929Z,0
2023-06-29T01:35:24.193Z,0
2023-06-29T01:40:41.749Z,0
2023-06-29T01:45:59.003Z,0
2023-06-29T01:51:16.488Z,0
2023-06-29T01:56:45.373Z,0
2023-06-29T02:02:03.175Z,0
2023-06-29T02:07:20.458Z,0
2023-06-29T02:12:37.750Z,0
2023-06-29T02:17:55.053Z,0
2023-06-29T02:23:12.264Z,0
2023-06-29T02:28:50.335Z,0
2023-06-29T02:34:07.944Z,0
2023-06-29T02:39:25.547Z,0.1
2023-06-29T02:44:43.153Z,0.5
2023-06-29T02:50:03.247Z,0.9
2023-06-29T02:55:37.732Z,1.8
2023-06-29T03:00:55.188Z,3.7
2023-06-29T03:06:12.183Z,8
2023-06-29T03:11:32.202Z,13
2023-06-29T03:16:49.172Z,18.8
2023-06-29T03:22:06.239Z,37.5
2023-06-29T03:27:30.602Z,58.3
2023-06-29T03:32:48.006Z,80
2023-06-29T03:38:22.972Z,120.8
2023-06-29T03:43:40.318Z,177.9
2023-06-29T03:48:57.123Z,268.8
2023-06-29T03:54:14.728Z,404.2
2023-06-29T03:59:31.758Z,589.6
2023-06-29T04:04:48.904Z,791.7
2023-06-29T04:10:05.790Z,847.5
2023-06-29T04:15:22.859Z,812.9
2023-06-29T04:20:39.843Z,880
2023-06-29T04:25:56.861Z,1027.1
2023-06-29T04:31:13.882Z,1215
2023-06-29T04:36:31.323Z,1592.5
2023-06-29T04:41:48.176Z,1440.4
2023-06-29T04:47:05.046Z,1109.2
2023-06-29T04:52:22.003Z,1137.1
2023-06-29T04:57:41.473Z,1112.5
2023-06-29T05:02:58.869Z,1140.4
2023-06-29T05:08:16.031Z,1080.8
2023-06-29T05:13:33.101Z,1298.3
2023-06-29T05:18:50.232Z,1661.2
2023-06-29T05:24:08.050Z,1732.1
2023-06-29T05:29:25.109Z,2108.3
2023-06-29T05:34:51.492Z,2580.4
2023-06-29T05:40:08.608Z,2909.2
2023-06-29T05:45:25.678Z,2496.7
2023-06-29T05:50:46.035Z,1965
2023-06-29T05:56:03.230Z,1346.7
2023-06-29T06:01:23.364Z,1330.8
2023-06-29T06:06:40.255Z,1745.4
2023-06-29T06:11:59.742Z,2155
2023-06-29T06:17:16.956Z,2659.6
2023-06-29T06:22:37.825Z,2977.5
2023-06-29T06:27:54.870Z,3436.7
2023-06-29T06:33:12.043Z,2459.6
2023-06-29T06:39:15.701Z,2553.3
2023-06-29T06:44:33.245Z,3184.6
2023-06-29T06:49:53.581Z,3247.1
2023-06-29T06:55:10.746Z,3590.8
2023-06-29T07:00:27.792Z,4579.2
2023-06-29T07:05:44.905Z,4358.3
2023-06-29T07:11:02.112Z,4719.6
2023-06-29T07:16:19.333Z,6327.5
2023-06-29T07:21:36.977Z,5359.6
2023-06-29T07:32:16.562Z,4400.4
2023-06-29T07:37:33.393Z,3468.3
2023-06-29T07:42:50.280Z,4538.8
2023-06-29T07:48:07.210Z,4625.4
2023-06-29T07:53:30.075Z,4902.1
2023-06-29T07:58:47.781Z,4887.5
2023-06-29T08:04:05.495Z,4316.7
2023-06-29T08:09:22.809Z,6045.4
2023-06-29T08:14:40.008Z,6660.4
2023-06-29T08:19:57.482Z,8652.5
2023-06-29T08:25:14.703Z,9124.6
2023-06-29T08:30:36.066Z,8048.7
2023-06-29T08:35:52.988Z,7309.6
2023-06-29T08:41:10.171Z,7798.7
2023-06-29T08:46:27.093Z,7876.3
2023-06-29T08:51:47.550Z,8945.8
2023-06-29T08:57:07.447Z,10223.3
2023-06-29T09:02:31.954Z,10633.7
2023-06-29T09:07:49.789Z,11541.7
2023-06-29T09:13:06.793Z,11015
2023-06-29T09:18:31.327Z,10653.3
2023-06-29T09:23:49.928Z,10103.3
2023-06-29T09:29:08.356Z,11680
2023-06-29T09:34:25.766Z,17492.5
2023-06-29T09:39:43.026Z,15430
2023-06-29T09:45:00.279Z,14274.2
2023-06-29T09:50:17.123Z,12893.3
2023-06-29T10:00:54.077Z,11080.4
2023-06-29T10:06:11.478Z,12954.6
2023-06-29T10:11:28.759Z,11717.1
2023-06-29T10:16:45.661Z,13252.5
2023-06-29T10:22:02.896Z,14271.3
2023-06-29T10:27:29.458Z,20016.7
2023-06-29T10:32:47.091Z,15207.9
2023-06-29T10:38:12.529Z,24154.2
2023-06-29T10:43:29.484Z,11860.4
2023-06-29T10:48:48.652Z,8626.2
2023-06-29T10:54:09.334Z,7162.9
2023-06-29T10:59:28.245Z,5295.4
2023-06-29T11:04:45.152Z,6362.1
2023-06-29T11:10:02.386Z,8361.2
2023-06-29T11:15:22.625Z,11405
2023-06-29T11:20:42.119Z,14442.9
2023-06-29T11:25:59.490Z,10267.9
2023-06-29T11:31:23.780Z,6226.7
2023-06-29T11:36:41.361Z,5932.5
2023-06-29T11:41:57.990Z,5760
2023-06-29T11:47:32.018Z,5888.3
2023-06-29T11:52:49.428Z,4579.2
2023-06-29T11:58:06.627Z,5567.5
2023-06-29T12:03:23.940Z,5507.1
2023-06-29T12:08:41.337Z,4415.8
2023-06-29T12:14:01.167Z,5348.3
2023-06-29T12:19:18.327Z,5561.3
2023-06-29T12:24:38.433Z,5482.9
2023-06-29T12:29:55.765Z,7459.6
2023-06-29T12:35:13.062Z,10745
2023-06-29T12:40:41.270Z,12192.1
2023-06-29T12:45:58.955Z,7051.7
2023-06-29T12:51:15.733Z,11095.8
2023-06-29T12:56:33.342Z,13500
2023-06-29T13:01:51.510Z,16392.9
2023-06-29T13:07:08.235Z,13737.1
2023-06-29T13:12:25.555Z,11927.9
2023-06-29T13:17:42.735Z,12103.8
2023-06-29T13:22:59.793Z,12104.2
2023-06-29T13:28:16.898Z,13793.7
2023-06-29T13:33:34.206Z,13434.6
2023-06-29T13:38:51.652Z,11848.3
2023-06-29T13:44:08.351Z,10312.1
2023-06-29T13:49:27.628Z,7134.6
2023-06-29T13:54:44.892Z,6356.7
2023-06-29T14:00:01.530Z,6797.5
2023-06-29T14:05:25.899Z,6381.7
2023-06-29T14:10:42.905Z,8150.4
2023-06-29T14:16:00.818Z,10429.6
2023-06-29T14:21:18.432Z,7511.7
2023-06-29T14:26:34.991Z,7267.9
2023-06-29T14:31:51.967Z,6560.4
2023-06-29T14:37:08.697Z,5590.4
2023-06-29T14:42:25.425Z,6620.4
2023-06-29T14:47:42.885Z,13344.6
2023-06-29T14:58:10.261Z,19784.6
2023-06-29T15:03:26.418Z,11010
2023-06-29T15:08:44.152Z,9808.7
2023-06-29T15:14:00.447Z,9817.9
2023-06-29T15:19:17.632Z,12531.7
2023-06-29T15:24:36.010Z,10057.9
2023-06-29T15:29:52.375Z,8434.2
2023-06-29T15:35:09.562Z,8871.7
2023-06-29T15:40:35.242Z,8592.9
2023-06-29T15:45:52.253Z,10522.1
2023-06-29T15:51:10.413Z,11287.1
2023-06-29T15:56:27.120Z,8262.9
2023-06-29T16:01:47.473Z,6070
2023-06-29T16:07:04.441Z,5470.4
2023-06-29T16:12:21.616Z,8387.9
2023-06-29T16:17:39.450Z,11520.4
2023-06-29T16:22:56.699Z,7842.1
2023-06-29T16:28:13.582Z,6332.1
2023-06-29T16:33:30.750Z,7251.3
2023-06-29T16:38:47.774Z,7882.5
2023-06-29T16:44:04.877Z,7367.1
2023-06-29T16:49:23.845Z,6080
2023-06-29T16:54:41.101Z,6065
2023-06-29T16:59:58.052Z,6407.5
2023-06-29T17:05:15.128Z,6225.4
2023-06-29T17:10:37.014Z,5053.3
2023-06-29T17:15:55.331Z,4279.2
2023-06-29T17:21:12.153Z,3778.3
2023-06-29T17:26:29.363Z,2830.4
2023-06-29T17:31:46.110Z,1810.8
2023-06-29T17:37:02.874Z,1440
2023-06-29T17:42:19.816Z,1498.7
2023-06-29T17:47:36.619Z,1053.7
2023-06-29T17:52:53.449Z,1291.7
2023-06-29T17:58:12.762Z,1837.5
2023-06-29T18:03:30.047Z,1874.6
2023-06-29T18:08:47.281Z,1327.9
2023-06-29T18:14:09.594Z,1422.5
2023-06-29T18:19:26.727Z,1337.5
2023-06-29T18:24:47.181Z,801.2
2023-06-29T18:30:25.358Z,525.8
2023-06-29T18:35:42.812Z,597.5
2023-06-29T18:41:16.656Z,503.8
2023-06-29T18:46:33.984Z,359.6
2023-06-29T18:51:50.943Z,338.3
2023-06-29T18:57:07.758Z,390.8
2023-06-29T19:02:32.592Z,415
2023-06-29T19:07:53.292Z,488.7
2023-06-29T19:18:43.533Z,268.3
2023-06-29T19:24:00.898Z,154.6
2023-06-29T19:29:28.290Z,88.3
2023-06-29T19:34:45.552Z,112.5
2023-06-29T19:40:02.893Z,127.9
2023-06-29T19:45:20.032Z,85
2023-06-29T19:50:37.388Z,61.7
2023-06-29T19:55:54.365Z,41.7
2023-06-29T20:06:21.495Z,8.8
2023-06-29T20:11:38.656Z,3.4
2023-06-29T20:16:56.102Z,2.4
2023-06-29T20:22:16.291Z,1.2
2023-06-29T20:27:33.932Z,0.5
2023-06-29T20:32:51.426Z,0
2023-06-29T20:38:08.923Z,0
2023-06-29T20:43:28.912Z,0
2023-06-29T20:48:46.274Z,0
2023-06-29T20:54:03.547Z,0
2023-06-29T20:59:20.818Z,0
2023-06-29T21:04:38.070Z,0
2023-06-29T21:09:57.430Z,0
2023-06-29T21:15:14.804Z,0
2023-06-29T21:20:32.094Z,0
2023-06-29T21:25:49.376Z,0
2023-06-29T21:31:06.597Z,0
2023-06-29T21:36:23.804Z,0
2023-06-29T21:41:41.008Z,0
2023-06-29T21:46:58.203Z,0
2023-06-29T21:52:15.646Z,0
2023-06-29T21:57:33.150Z,0
2023-06-29T22:02:51.160Z,0
2023-06-29T22:08:09.487Z,0
2023-06-29T22:13:47.870Z,0
2023-06-29T22:19:05.368Z,0
2023-06-29T22:24:22.903Z,0
2023-06-29T22:29:40.396Z,0
2023-06-29T22:34:58.115Z,0
2023-06-29T22:40:15.639Z,0
2023-06-29T22:45:33.048Z,0
2023-06-29T22:50:50.660Z,0
2023-06-29T22:56:08.261Z,0
2023-06-29T23:01:28.438Z,0
2023-06-29T23:06:45.915Z,0
2023-06-29T23:12:03.164Z,0
2023-06-29T23:17:20.501Z,0
2023-06-29T23:22:38.139Z,0
2023-06-29T23:27:55.562Z,0
2023-06-29T23:33:12.809Z,0
2023-06-29T23:43:50.746Z,0
2023-06-29T23:49:07.982Z,0
2023-06-29T23:54:25.138Z,0
2023-06-29T23:59:42.378Z,0
